sensor_id;sensor_type;location;lat;lon;timestamp;P1;durP1;ratioP1;P2;durP2;ratioP2
42124;SDS011;27787;44.594;11.046;2023-02-01T00:02:29;24.10;;;9.25;;
42124;SDS011;27787;44.594;11.046;2023-02-01T00:05:14;19.52;;;8.50;;
42124;SDS011;27787;44.594;11.046;2023-02-01T00:07:57;20.58;;;9.10;;
42124;SDS011;27787;44.594;11.046;2023-02-01T00:10:41;19.92;;;9.25;;
42124;SDS011;27787;44.594;11.046;2023-02-01T00:13:27;25.33;;;9.15;;
42124;SDS011;27787;44.594;11.046;2023-02-01T00:16:13;23.63;;;9.82;;
42124;SDS011;27787;44.594;11.046;2023-02-01T00:19:03;22.90;;;10.52;;
42124;SDS011;27787;44.594;11.046;2023-02-01T00:21:53;20.50;;;9.68;;
42124;SDS011;27787;44.594;11.046;2023-02-01T00:24:37;17.00;;;7.95;;
42124;SDS011;27787;44.594;11.046;2023-02-01T00:27:21;14.68;;;6.75;;
42124;SDS011;27787;44.594;11.046;2023-02-01T00:30:05;13.15;;;7.35;;
42124;SDS011;27787;44.594;11.046;2023-02-01T00:32:50;16.17;;;7.60;;
42124;SDS011;27787;44.594;11.046;2023-02-01T00:35:35;21.25;;;8.65;;
42124;SDS011;27787;44.594;11.046;2023-02-01T00:38:20;20.35;;;9.40;;
42124;SDS011;27787;44.594;11.046;2023-02-01T00:41:05;21.88;;;9.30;;
42124;SDS011;27787;44.594;11.046;2023-02-01T00:43:51;26.27;;;10.57;;
42124;SDS011;27787;44.594;11.046;2023-02-01T00:46:35;27.30;;;11.05;;
42124;SDS011;27787;44.594;11.046;2023-02-01T00:49:20;22.58;;;10.52;;
42124;SDS011;27787;44.594;11.046;2023-02-01T00:52:04;25.40;;;10.35;;
42124;SDS011;27787;44.594;11.046;2023-02-01T00:54:49;24.10;;;8.98;;
42124;SDS011;27787;44.594;11.046;2023-02-01T00:57:33;22.95;;;10.43;;
42124;SDS011;27787;44.594;11.046;2023-02-01T01:00:17;20.88;;;8.73;;
42124;SDS011;27787;44.594;11.046;2023-02-01T01:03:02;20.52;;;7.65;;
42124;SDS011;27787;44.594;11.046;2023-02-01T01:06:02;15.88;;;7.97;;
42124;SDS011;27787;44.594;11.046;2023-02-01T01:08:50;13.75;;;6.45;;
42124;SDS011;27787;44.594;11.046;2023-02-01T01:11:36;14.65;;;6.18;;
42124;SDS011;27787;44.594;11.046;2023-02-01T01:14:23;14.32;;;6.82;;
42124;SDS011;27787;44.594;11.046;2023-02-01T01:17:08;15.52;;;6.03;;
42124;SDS011;27787;44.594;11.046;2023-02-01T01:19:52;16.83;;;6.22;;
42124;SDS011;27787;44.594;11.046;2023-02-01T01:22:36;11.25;;;5.82;;
42124;SDS011;27787;44.594;11.046;2023-02-01T01:25:20;15.77;;;6.10;;
42124;SDS011;27787;44.594;11.046;2023-02-01T01:28:05;11.07;;;5.32;;
42124;SDS011;27787;44.594;11.046;2023-02-01T01:30:49;8.90;;;4.90;;
42124;SDS011;27787;44.594;11.046;2023-02-01T01:33:34;11.35;;;5.32;;
42124;SDS011;27787;44.594;11.046;2023-02-01T01:36:18;10.43;;;4.72;;
42124;SDS011;27787;44.594;11.046;2023-02-01T01:39:02;11.50;;;4.93;;
42124;SDS011;27787;44.594;11.046;2023-02-01T01:41:46;9.52;;;4.25;;
42124;SDS011;27787;44.594;11.046;2023-02-01T01:44:56;9.75;;;4.55;;
42124;SDS011;27787;44.594;11.046;2023-02-01T01:47:53;14.15;;;4.88;;
42124;SDS011;27787;44.594;11.046;2023-02-01T01:50:44;10.77;;;4.22;;
42124;SDS011;27787;44.594;11.046;2023-02-01T01:54:06;8.88;;;4.40;;
42124;SDS011;27787;44.594;11.046;2023-02-01T01:56:53;11.18;;;4.75;;
42124;SDS011;27787;44.594;11.046;2023-02-01T01:59:47;10.23;;;4.55;;
42124;SDS011;27787;44.594;11.046;2023-02-01T02:02:37;11.23;;;3.95;;
42124;SDS011;27787;44.594;11.046;2023-02-01T02:05:23;8.57;;;4.20;;
42124;SDS011;27787;44.594;11.046;2023-02-01T02:08:07;11.63;;;4.18;;
42124;SDS011;27787;44.594;11.046;2023-02-01T02:10:52;8.75;;;4.22;;
42124;SDS011;27787;44.594;11.046;2023-02-01T02:13:44;9.27;;;4.07;;
42124;SDS011;27787;44.594;11.046;2023-02-01T02:16:39;10.10;;;3.83;;
42124;SDS011;27787;44.594;11.046;2023-02-01T02:19:56;6.70;;;3.35;;
42124;SDS011;27787;44.594;11.046;2023-02-01T02:38:22;7.65;;;3.67;;
42124;SDS011;27787;44.594;11.046;2023-02-01T02:41:40;7.35;;;3.42;;
42124;SDS011;27787;44.594;11.046;2023-02-01T02:45:16;9.90;;;3.55;;
42124;SDS011;27787;44.594;11.046;2023-02-01T02:54:29;11.32;;;4.05;;
42124;SDS011;27787;44.594;11.046;2023-02-01T02:57:37;7.40;;;3.38;;
42124;SDS011;27787;44.594;11.046;2023-02-01T03:00:44;7.82;;;3.83;;
42124;SDS011;27787;44.594;11.046;2023-02-01T03:03:48;8.88;;;3.97;;
42124;SDS011;27787;44.594;11.046;2023-02-01T03:06:51;8.13;;;3.85;;
42124;SDS011;27787;44.594;11.046;2023-02-01T03:09:36;8.70;;;4.57;;
42124;SDS011;27787;44.594;11.046;2023-02-01T03:12:23;7.90;;;3.28;;
42124;SDS011;27787;44.594;11.046;2023-02-01T03:15:30;8.60;;;3.97;;
42124;SDS011;27787;44.594;11.046;2023-02-01T03:18:22;9.30;;;3.97;;
42124;SDS011;27787;44.594;11.046;2023-02-01T03:21:13;11.50;;;4.60;;
42124;SDS011;27787;44.594;11.046;2023-02-01T03:24:11;9.32;;;4.10;;
42124;SDS011;27787;44.594;11.046;2023-02-01T03:27:02;11.02;;;4.40;;
42124;SDS011;27787;44.594;11.046;2023-02-01T03:29:52;11.13;;;4.57;;
42124;SDS011;27787;44.594;11.046;2023-02-01T03:32:41;11.45;;;4.53;;
42124;SDS011;27787;44.594;11.046;2023-02-01T03:35:57;7.75;;;3.83;;
42124;SDS011;27787;44.594;11.046;2023-02-01T03:42:04;8.63;;;3.88;;
42124;SDS011;27787;44.594;11.046;2023-02-01T03:47:43;10.25;;;4.10;;
42124;SDS011;27787;44.594;11.046;2023-02-01T03:50:31;11.73;;;4.18;;
42124;SDS011;27787;44.594;11.046;2023-02-01T03:53:20;9.05;;;3.38;;
42124;SDS011;27787;44.594;11.046;2023-02-01T03:56:07;6.18;;;3.28;;
42124;SDS011;27787;44.594;11.046;2023-02-01T03:58:53;8.32;;;3.67;;
42124;SDS011;27787;44.594;11.046;2023-02-01T04:01:45;7.90;;;3.42;;
42124;SDS011;27787;44.594;11.046;2023-02-01T04:04:30;6.53;;;3.35;;
42124;SDS011;27787;44.594;11.046;2023-02-01T04:07:14;10.15;;;3.75;;
42124;SDS011;27787;44.594;11.046;2023-02-01T04:12:44;6.45;;;3.17;;
42124;SDS011;27787;44.594;11.046;2023-02-01T04:15:28;11.43;;;3.72;;
42124;SDS011;27787;44.594;11.046;2023-02-01T04:18:12;11.68;;;3.47;;
42124;SDS011;27787;44.594;11.046;2023-02-01T04:20:56;6.90;;;3.17;;
42124;SDS011;27787;44.594;11.046;2023-02-01T04:23:40;7.43;;;3.58;;
42124;SDS011;27787;44.594;11.046;2023-02-01T04:26:24;8.70;;;3.72;;
42124;SDS011;27787;44.594;11.046;2023-02-01T04:29:08;6.68;;;3.15;;
42124;SDS011;27787;44.594;11.046;2023-02-01T04:31:54;14.07;;;3.53;;
42124;SDS011;27787;44.594;11.046;2023-02-01T04:34:38;9.48;;;3.55;;
42124;SDS011;27787;44.594;11.046;2023-02-01T04:37:22;6.63;;;3.28;;
42124;SDS011;27787;44.594;11.046;2023-02-01T04:40:06;7.13;;;3.40;;
42124;SDS011;27787;44.594;11.046;2023-02-01T04:42:51;9.10;;;3.58;;
42124;SDS011;27787;44.594;11.046;2023-02-01T04:45:34;8.00;;;3.47;;
42124;SDS011;27787;44.594;11.046;2023-02-01T04:48:19;8.77;;;3.45;;
42124;SDS011;27787;44.594;11.046;2023-02-01T04:51:03;13.23;;;3.92;;
42124;SDS011;27787;44.594;11.046;2023-02-01T04:53:48;7.28;;;4.03;;
42124;SDS011;27787;44.594;11.046;2023-02-01T04:56:32;13.00;;;4.55;;
42124;SDS011;27787;44.594;11.046;2023-02-01T04:59:18;12.93;;;4.30;;
42124;SDS011;27787;44.594;11.046;2023-02-01T05:02:02;11.68;;;3.85;;
42124;SDS011;27787;44.594;11.046;2023-02-01T05:04:46;7.57;;;3.70;;
42124;SDS011;27787;44.594;11.046;2023-02-01T05:07:30;23.70;;;4.95;;
42124;SDS011;27787;44.594;11.046;2023-02-01T05:10:14;12.18;;;4.72;;
42124;SDS011;27787;44.594;11.046;2023-02-01T05:12:58;11.30;;;4.55;;
42124;SDS011;27787;44.594;11.046;2023-02-01T05:16:01;9.00;;;3.35;;
42124;SDS011;27787;44.594;11.046;2023-02-01T05:18:46;8.48;;;3.83;;
42124;SDS011;27787;44.594;11.046;2023-02-01T05:21:30;11.75;;;3.80;;
42124;SDS011;27787;44.594;11.046;2023-02-01T05:24:14;11.60;;;3.55;;
42124;SDS011;27787;44.594;11.046;2023-02-01T05:27:04;5.68;;;3.22;;
42124;SDS011;27787;44.594;11.046;2023-02-01T05:29:48;6.38;;;2.97;;
42124;SDS011;27787;44.594;11.046;2023-02-01T05:32:32;7.55;;;3.15;;
42124;SDS011;27787;44.594;11.046;2023-02-01T05:35:16;9.60;;;3.47;;
42124;SDS011;27787;44.594;11.046;2023-02-01T05:38:01;8.77;;;3.72;;
42124;SDS011;27787;44.594;11.046;2023-02-01T05:40:45;9.95;;;3.75;;
42124;SDS011;27787;44.594;11.046;2023-02-01T05:43:33;9.30;;;3.20;;
42124;SDS011;27787;44.594;11.046;2023-02-01T05:46:18;11.52;;;3.58;;
42124;SDS011;27787;44.594;11.046;2023-02-01T05:49:02;12.07;;;3.97;;
42124;SDS011;27787;44.594;11.046;2023-02-01T05:51:47;8.68;;;3.17;;
42124;SDS011;27787;44.594;11.046;2023-02-01T05:54:31;7.35;;;2.72;;
42124;SDS011;27787;44.594;11.046;2023-02-01T05:57:15;6.32;;;2.78;;
42124;SDS011;27787;44.594;11.046;2023-02-01T06:00:00;9.13;;;3.78;;
42124;SDS011;27787;44.594;11.046;2023-02-01T06:02:44;12.65;;;3.67;;
42124;SDS011;27787;44.594;11.046;2023-02-01T06:05:29;7.57;;;2.78;;
42124;SDS011;27787;44.594;11.046;2023-02-01T06:08:13;8.45;;;3.70;;
42124;SDS011;27787;44.594;11.046;2023-02-01T06:10:59;13.10;;;3.22;;
42124;SDS011;27787;44.594;11.046;2023-02-01T06:13:43;8.68;;;3.15;;
42124;SDS011;27787;44.594;11.046;2023-02-01T06:16:27;9.60;;;3.42;;
42124;SDS011;27787;44.594;11.046;2023-02-01T06:19:12;7.85;;;3.33;;
42124;SDS011;27787;44.594;11.046;2023-02-01T06:21:57;7.07;;;2.80;;
42124;SDS011;27787;44.594;11.046;2023-02-01T06:24:40;8.70;;;3.03;;
42124;SDS011;27787;44.594;11.046;2023-02-01T06:27:25;14.88;;;3.97;;
42124;SDS011;27787;44.594;11.046;2023-02-01T06:30:09;9.18;;;3.22;;
42124;SDS011;27787;44.594;11.046;2023-02-01T06:32:54;8.63;;;3.58;;
42124;SDS011;27787;44.594;11.046;2023-02-01T06:35:38;10.90;;;3.40;;
42124;SDS011;27787;44.594;11.046;2023-02-01T06:38:23;9.85;;;3.83;;
42124;SDS011;27787;44.594;11.046;2023-02-01T06:41:07;14.13;;;2.95;;
42124;SDS011;27787;44.594;11.046;2023-02-01T06:43:51;13.27;;;3.50;;
42124;SDS011;27787;44.594;11.046;2023-02-01T06:46:35;9.10;;;2.80;;
42124;SDS011;27787;44.594;11.046;2023-02-01T06:49:19;6.82;;;2.83;;
42124;SDS011;27787;44.594;11.046;2023-02-01T06:52:03;13.32;;;3.00;;
42124;SDS011;27787;44.594;11.046;2023-02-01T06:54:48;10.38;;;2.83;;
42124;SDS011;27787;44.594;11.046;2023-02-01T06:57:31;11.93;;;3.58;;
42124;SDS011;27787;44.594;11.046;2023-02-01T07:00:17;10.60;;;3.83;;
42124;SDS011;27787;44.594;11.046;2023-02-01T07:03:02;12.15;;;3.40;;
42124;SDS011;27787;44.594;11.046;2023-02-01T07:05:46;14.57;;;3.78;;
42124;SDS011;27787;44.594;11.046;2023-02-01T07:08:31;15.07;;;4.18;;
42124;SDS011;27787;44.594;11.046;2023-02-01T07:11:17;11.30;;;3.13;;
42124;SDS011;27787;44.594;11.046;2023-02-01T07:14:02;10.50;;;3.42;;
42124;SDS011;27787;44.594;11.046;2023-02-01T07:16:47;6.20;;;3.40;;
42124;SDS011;27787;44.594;11.046;2023-02-01T07:19:31;7.30;;;3.13;;
42124;SDS011;27787;44.594;11.046;2023-02-01T07:22:18;13.43;;;3.90;;
42124;SDS011;27787;44.594;11.046;2023-02-01T07:25:02;9.90;;;3.17;;
42124;SDS011;27787;44.594;11.046;2023-02-01T07:27:46;9.60;;;3.60;;
42124;SDS011;27787;44.594;11.046;2023-02-01T07:30:30;16.17;;;4.78;;
42124;SDS011;27787;44.594;11.046;2023-02-01T07:33:15;12.88;;;4.35;;
42124;SDS011;27787;44.594;11.046;2023-02-01T07:36:00;15.60;;;4.75;;
42124;SDS011;27787;44.594;11.046;2023-02-01T07:38:46;13.65;;;4.15;;
42124;SDS011;27787;44.594;11.046;2023-02-01T07:41:31;11.25;;;5.07;;
42124;SDS011;27787;44.594;11.046;2023-02-01T07:44:15;17.25;;;4.55;;
42124;SDS011;27787;44.594;11.046;2023-02-01T07:47:02;20.35;;;5.15;;
42124;SDS011;27787;44.594;11.046;2023-02-01T07:49:46;14.80;;;4.65;;
42124;SDS011;27787;44.594;11.046;2023-02-01T07:52:31;12.98;;;5.38;;
42124;SDS011;27787;44.594;11.046;2023-02-01T07:55:15;17.63;;;4.53;;
42124;SDS011;27787;44.594;11.046;2023-02-01T07:57:59;12.13;;;4.78;;
42124;SDS011;27787;44.594;11.046;2023-02-01T08:00:43;13.10;;;4.97;;
42124;SDS011;27787;44.594;11.046;2023-02-01T08:03:51;14.85;;;5.47;;
42124;SDS011;27787;44.594;11.046;2023-02-01T08:06:39;13.43;;;4.55;;
42124;SDS011;27787;44.594;11.046;2023-02-01T08:09:24;13.63;;;5.40;;
42124;SDS011;27787;44.594;11.046;2023-02-01T08:12:08;19.33;;;6.97;;
42124;SDS011;27787;44.594;11.046;2023-02-01T08:14:52;16.17;;;5.30;;
42124;SDS011;27787;44.594;11.046;2023-02-01T08:17:37;15.43;;;5.57;;
42124;SDS011;27787;44.594;11.046;2023-02-01T08:20:22;18.08;;;5.38;;
42124;SDS011;27787;44.594;11.046;2023-02-01T08:23:07;19.92;;;5.57;;
42124;SDS011;27787;44.594;11.046;2023-02-01T08:25:52;13.70;;;5.47;;
42124;SDS011;27787;44.594;11.046;2023-02-01T08:28:37;17.67;;;5.78;;
42124;SDS011;27787;44.594;11.046;2023-02-01T08:34:08;29.42;;;6.28;;
42124;SDS011;27787;44.594;11.046;2023-02-01T08:36:52;19.63;;;5.85;;
42124;SDS011;27787;44.594;11.046;2023-02-01T08:39:41;23.15;;;7.50;;
42124;SDS011;27787;44.594;11.046;2023-02-01T08:42:26;33.13;;;7.90;;
42124;SDS011;27787;44.594;11.046;2023-02-01T08:45:29;31.70;;;8.65;;
42124;SDS011;27787;44.594;11.046;2023-02-01T08:48:14;18.50;;;6.93;;
42124;SDS011;27787;44.594;11.046;2023-02-01T08:51:02;24.00;;;7.57;;
42124;SDS011;27787;44.594;11.046;2023-02-01T08:53:48;24.48;;;9.80;;
42124;SDS011;27787;44.594;11.046;2023-02-01T08:56:33;28.58;;;10.25;;
42124;SDS011;27787;44.594;11.046;2023-02-01T08:59:16;25.67;;;10.00;;
42124;SDS011;27787;44.594;11.046;2023-02-01T09:02:01;24.25;;;9.70;;
42124;SDS011;27787;44.594;11.046;2023-02-01T09:04:45;22.52;;;9.43;;
42124;SDS011;27787;44.594;11.046;2023-02-01T09:07:30;25.15;;;9.80;;
42124;SDS011;27787;44.594;11.046;2023-02-01T09:10:14;27.83;;;10.85;;
42124;SDS011;27787;44.594;11.046;2023-02-01T09:12:59;27.65;;;10.65;;
42124;SDS011;27787;44.594;11.046;2023-02-01T09:15:43;32.95;;;11.75;;
42124;SDS011;27787;44.594;11.046;2023-02-01T09:18:29;29.70;;;11.43;;
42124;SDS011;27787;44.594;11.046;2023-02-01T09:21:13;36.10;;;13.10;;
42124;SDS011;27787;44.594;11.046;2023-02-01T09:23:58;38.05;;;14.80;;
42124;SDS011;27787;44.594;11.046;2023-02-01T09:26:42;37.33;;;15.07;;
42124;SDS011;27787;44.594;11.046;2023-02-01T09:29:27;32.55;;;14.15;;
42124;SDS011;27787;44.594;11.046;2023-02-01T09:32:11;38.63;;;15.80;;
42124;SDS011;27787;44.594;11.046;2023-02-01T09:34:55;40.25;;;15.65;;
42124;SDS011;27787;44.594;11.046;2023-02-01T09:37:40;33.92;;;13.73;;
42124;SDS011;27787;44.594;11.046;2023-02-01T09:40:24;37.08;;;12.55;;
42124;SDS011;27787;44.594;11.046;2023-02-01T09:46:21;31.70;;;11.77;;
42124;SDS011;27787;44.594;11.046;2023-02-01T09:49:28;28.85;;;12.18;;
42124;SDS011;27787;44.594;11.046;2023-02-01T09:52:15;32.95;;;15.27;;
42124;SDS011;27787;44.594;11.046;2023-02-01T09:55:03;40.17;;;15.20;;
42124;SDS011;27787;44.594;11.046;2023-02-01T09:58:24;38.58;;;16.48;;
42124;SDS011;27787;44.594;11.046;2023-02-01T10:01:23;46.70;;;16.85;;
42124;SDS011;27787;44.594;11.046;2023-02-01T10:04:10;41.75;;;17.40;;
42124;SDS011;27787;44.594;11.046;2023-02-01T10:22:45;40.05;;;17.33;;
42124;SDS011;27787;44.594;11.046;2023-02-01T10:28:36;49.25;;;17.92;;
42124;SDS011;27787;44.594;11.046;2023-02-01T10:31:24;47.78;;;18.52;;
42124;SDS011;27787;44.594;11.046;2023-02-01T10:34:24;51.90;;;20.55;;
42124;SDS011;27787;44.594;11.046;2023-02-01T10:37:16;44.20;;;18.02;;
42124;SDS011;27787;44.594;11.046;2023-02-01T10:42:56;57.50;;;20.98;;
42124;SDS011;27787;44.594;11.046;2023-02-01T10:45:43;51.75;;;19.35;;
42124;SDS011;27787;44.594;11.046;2023-02-01T10:48:29;54.88;;;21.13;;
42124;SDS011;27787;44.594;11.046;2023-02-01T10:51:16;51.05;;;21.50;;
42124;SDS011;27787;44.594;11.046;2023-02-01T10:54:11;46.55;;;19.88;;
42124;SDS011;27787;44.594;11.046;2023-02-01T10:57:01;47.30;;;18.80;;
42124;SDS011;27787;44.594;11.046;2023-02-01T10:59:45;43.58;;;19.42;;
42124;SDS011;27787;44.594;11.046;2023-02-01T11:02:33;43.88;;;20.33;;
42124;SDS011;27787;44.594;11.046;2023-02-01T11:05:19;45.42;;;19.30;;
42124;SDS011;27787;44.594;11.046;2023-02-01T11:08:12;41.45;;;19.05;;
42124;SDS011;27787;44.594;11.046;2023-02-01T11:11:01;42.97;;;19.30;;
42124;SDS011;27787;44.594;11.046;2023-02-01T11:13:54;42.65;;;18.45;;
42124;SDS011;27787;44.594;11.046;2023-02-01T11:16:41;36.25;;;19.00;;
42124;SDS011;27787;44.594;11.046;2023-02-01T11:19:32;35.03;;;16.75;;
42124;SDS011;27787;44.594;11.046;2023-02-01T11:22:16;35.10;;;15.98;;
42124;SDS011;27787;44.594;11.046;2023-02-01T11:25:01;29.55;;;14.63;;
42124;SDS011;27787;44.594;11.046;2023-02-01T11:27:54;40.40;;;15.73;;
42124;SDS011;27787;44.594;11.046;2023-02-01T11:33:27;33.03;;;13.70;;
42124;SDS011;27787;44.594;11.046;2023-02-01T11:36:18;30.77;;;13.32;;
42124;SDS011;27787;44.594;11.046;2023-02-01T11:44:45;32.92;;;13.60;;
42124;SDS011;27787;44.594;11.046;2023-02-01T11:47:31;27.13;;;12.48;;
42124;SDS011;27787;44.594;11.046;2023-02-01T11:50:28;34.30;;;12.85;;
42124;SDS011;27787;44.594;11.046;2023-02-01T11:59:36;28.52;;;13.90;;
42124;SDS011;27787;44.594;11.046;2023-02-01T12:02:49;35.78;;;13.63;;
42124;SDS011;27787;44.594;11.046;2023-02-01T12:11:38;29.10;;;13.35;;
42124;SDS011;27787;44.594;11.046;2023-02-01T12:30:46;23.65;;;11.10;;
42124;SDS011;27787;44.594;11.046;2023-02-01T12:36:58;19.35;;;9.43;;
42124;SDS011;27787;44.594;11.046;2023-02-01T12:40:13;27.65;;;9.82;;
42124;SDS011;27787;44.594;11.046;2023-02-01T12:49:18;23.10;;;9.50;;
42124;SDS011;27787;44.594;11.046;2023-02-01T12:52:14;22.75;;;9.40;;
42124;SDS011;27787;44.594;11.046;2023-02-01T12:55:15;24.52;;;10.00;;
42124;SDS011;27787;44.594;11.046;2023-02-01T12:58:11;23.05;;;10.85;;
42124;SDS011;27787;44.594;11.046;2023-02-01T13:01:02;26.17;;;10.95;;
42124;SDS011;27787;44.594;11.046;2023-02-01T13:10:42;22.23;;;10.80;;
42124;SDS011;27787;44.594;11.046;2023-02-01T13:16:44;18.92;;;9.50;;
42124;SDS011;27787;44.594;11.046;2023-02-01T13:22:35;20.98;;;8.85;;
42124;SDS011;27787;44.594;11.046;2023-02-01T13:25:35;24.85;;;9.82;;
42124;SDS011;27787;44.594;11.046;2023-02-01T13:28:35;16.83;;;9.38;;
42124;SDS011;27787;44.594;11.046;2023-02-01T13:35:04;21.60;;;9.00;;
42124;SDS011;27787;44.594;11.046;2023-02-01T13:41:24;24.65;;;9.13;;
42124;SDS011;27787;44.594;11.046;2023-02-01T13:44:11;20.38;;;9.13;;
42124;SDS011;27787;44.594;11.046;2023-02-01T13:47:00;19.25;;;8.77;;
42124;SDS011;27787;44.594;11.046;2023-02-01T13:49:46;26.83;;;9.32;;
42124;SDS011;27787;44.594;11.046;2023-02-01T13:52:36;25.50;;;9.00;;
42124;SDS011;27787;44.594;11.046;2023-02-01T13:58:10;24.40;;;9.75;;
42124;SDS011;27787;44.594;11.046;2023-02-01T14:04:06;21.27;;;9.15;;
42124;SDS011;27787;44.594;11.046;2023-02-01T14:07:28;19.27;;;8.65;;
42124;SDS011;27787;44.594;11.046;2023-02-01T14:13:40;20.80;;;9.25;;
42124;SDS011;27787;44.594;11.046;2023-02-01T14:16:25;22.15;;;10.30;;
42124;SDS011;27787;44.594;11.046;2023-02-01T14:19:20;26.37;;;9.60;;
42124;SDS011;27787;44.594;11.046;2023-02-01T14:24:58;19.30;;;9.55;;
42124;SDS011;27787;44.594;11.046;2023-02-01T14:27:42;22.20;;;9.35;;
42124;SDS011;27787;44.594;11.046;2023-02-01T14:30:27;21.70;;;9.20;;
42124;SDS011;27787;44.594;11.046;2023-02-01T14:33:16;26.17;;;9.93;;
42124;SDS011;27787;44.594;11.046;2023-02-01T14:36:08;33.30;;;11.25;;
42124;SDS011;27787;44.594;11.046;2023-02-01T14:38:55;19.73;;;8.88;;
42124;SDS011;27787;44.594;11.046;2023-02-01T14:41:39;17.92;;;8.15;;
42124;SDS011;27787;44.594;11.046;2023-02-01T14:44:36;18.35;;;8.63;;
42124;SDS011;27787;44.594;11.046;2023-02-01T14:56:04;26.75;;;9.68;;
42124;SDS011;27787;44.594;11.046;2023-02-01T14:59:12;22.20;;;9.75;;
42124;SDS011;27787;44.594;11.046;2023-02-01T15:01:59;23.42;;;10.57;;
42124;SDS011;27787;44.594;11.046;2023-02-01T15:04:44;22.65;;;10.27;;
42124;SDS011;27787;44.594;11.046;2023-02-01T15:07:29;23.38;;;10.35;;
42124;SDS011;27787;44.594;11.046;2023-02-01T15:10:14;33.33;;;11.23;;
42124;SDS011;27787;44.594;11.046;2023-02-01T15:12:59;27.98;;;10.93;;
42124;SDS011;27787;44.594;11.046;2023-02-01T15:15:44;23.17;;;10.82;;
42124;SDS011;27787;44.594;11.046;2023-02-01T15:18:28;22.42;;;11.30;;
42124;SDS011;27787;44.594;11.046;2023-02-01T15:24:19;25.25;;;10.70;;
42124;SDS011;27787;44.594;11.046;2023-02-01T15:27:05;28.35;;;11.57;;
42124;SDS011;27787;44.594;11.046;2023-02-01T15:29:50;25.85;;;10.95;;
42124;SDS011;27787;44.594;11.046;2023-02-01T15:32:36;29.83;;;12.50;;
42124;SDS011;27787;44.594;11.046;2023-02-01T15:35:39;26.50;;;11.68;;
42124;SDS011;27787;44.594;11.046;2023-02-01T15:38:30;25.40;;;10.52;;
42124;SDS011;27787;44.594;11.046;2023-02-01T15:41:19;30.52;;;12.75;;
42124;SDS011;27787;44.594;11.046;2023-02-01T15:44:10;30.70;;;11.80;;
42124;SDS011;27787;44.594;11.046;2023-02-01T15:47:16;23.73;;;10.15;;
42124;SDS011;27787;44.594;11.046;2023-02-01T15:50:12;25.67;;;10.00;;
42124;SDS011;27787;44.594;11.046;2023-02-01T15:52:58;27.42;;;11.05;;
42124;SDS011;27787;44.594;11.046;2023-02-01T15:55:43;23.75;;;10.38;;
42124;SDS011;27787;44.594;11.046;2023-02-01T15:58:29;23.65;;;9.90;;
42124;SDS011;27787;44.594;11.046;2023-02-01T16:07:27;29.80;;;10.82;;
42124;SDS011;27787;44.594;11.046;2023-02-01T16:10:37;24.52;;;9.90;;
42124;SDS011;27787;44.594;11.046;2023-02-01T16:13:22;23.38;;;10.45;;
42124;SDS011;27787;44.594;11.046;2023-02-01T16:16:07;28.75;;;11.90;;
42124;SDS011;27787;44.594;11.046;2023-02-01T16:18:57;25.73;;;11.60;;
42124;SDS011;27787;44.594;11.046;2023-02-01T16:21:41;25.02;;;10.82;;
42124;SDS011;27787;44.594;11.046;2023-02-01T16:24:25;23.75;;;10.55;;
42124;SDS011;27787;44.594;11.046;2023-02-01T16:27:10;33.88;;;12.02;;
42124;SDS011;27787;44.594;11.046;2023-02-01T16:29:54;40.55;;;12.23;;
42124;SDS011;27787;44.594;11.046;2023-02-01T16:32:40;25.00;;;11.85;;
42124;SDS011;27787;44.594;11.046;2023-02-01T16:35:29;34.72;;;12.68;;
42124;SDS011;27787;44.594;11.046;2023-02-01T16:38:19;31.17;;;13.02;;
42124;SDS011;27787;44.594;11.046;2023-02-01T16:41:05;29.63;;;12.02;;
42124;SDS011;27787;44.594;11.046;2023-02-01T16:43:53;30.73;;;12.68;;
42124;SDS011;27787;44.594;11.046;2023-02-01T16:46:44;25.85;;;12.43;;
42124;SDS011;27787;44.594;11.046;2023-02-01T16:49:30;29.83;;;13.48;;
42124;SDS011;27787;44.594;11.046;2023-02-01T16:52:20;31.08;;;13.93;;
42124;SDS011;27787;44.594;11.046;2023-02-01T16:55:08;29.40;;;13.82;;
42124;SDS011;27787;44.594;11.046;2023-02-01T16:57:58;33.78;;;14.90;;
42124;SDS011;27787;44.594;11.046;2023-02-01T17:00:43;30.70;;;13.95;;
42124;SDS011;27787;44.594;11.046;2023-02-01T17:03:27;48.05;;;14.70;;
42124;SDS011;27787;44.594;11.046;2023-02-01T17:06:12;36.45;;;14.60;;
42124;SDS011;27787;44.594;11.046;2023-02-01T17:08:59;37.80;;;14.82;;
42124;SDS011;27787;44.594;11.046;2023-02-01T17:11:45;37.30;;;15.23;;
42124;SDS011;27787;44.594;11.046;2023-02-01T17:14:29;36.80;;;13.85;;
42124;SDS011;27787;44.594;11.046;2023-02-01T17:17:15;35.63;;;14.88;;
42124;SDS011;27787;44.594;11.046;2023-02-01T17:20:00;30.33;;;14.65;;
42124;SDS011;27787;44.594;11.046;2023-02-01T17:22:46;43.15;;;15.95;;
42124;SDS011;27787;44.594;11.046;2023-02-01T17:25:31;45.70;;;16.13;;
42124;SDS011;27787;44.594;11.046;2023-02-01T17:28:16;35.97;;;14.63;;
42124;SDS011;27787;44.594;11.046;2023-02-01T17:31:00;40.85;;;18.08;;
42124;SDS011;27787;44.594;11.046;2023-02-01T17:33:45;58.08;;;24.42;;
42124;SDS011;27787;44.594;11.046;2023-02-01T17:36:29;40.67;;;19.55;;
42124;SDS011;27787;44.594;11.046;2023-02-01T17:39:14;40.13;;;17.73;;
42124;SDS011;27787;44.594;11.046;2023-02-01T17:42:19;46.25;;;19.67;;
42124;SDS011;27787;44.594;11.046;2023-02-01T17:48:07;54.67;;;23.58;;
42124;SDS011;27787;44.594;11.046;2023-02-01T17:50:51;55.95;;;26.00;;
42124;SDS011;27787;44.594;11.046;2023-02-01T17:53:41;55.45;;;24.98;;
42124;SDS011;27787;44.594;11.046;2023-02-01T17:56:26;51.47;;;25.85;;
42124;SDS011;27787;44.594;11.046;2023-02-01T17:59:11;61.75;;;29.98;;
42124;SDS011;27787;44.594;11.046;2023-02-01T18:01:55;75.70;;;32.28;;
42124;SDS011;27787;44.594;11.046;2023-02-01T18:04:43;54.45;;;26.90;;
42124;SDS011;27787;44.594;11.046;2023-02-01T18:07:28;51.70;;;23.30;;
42124;SDS011;27787;44.594;11.046;2023-02-01T18:10:11;58.30;;;27.95;;
42124;SDS011;27787;44.594;11.046;2023-02-01T18:12:56;64.47;;;26.08;;
42124;SDS011;27787;44.594;11.046;2023-02-01T18:15:40;55.88;;;26.08;;
42124;SDS011;27787;44.594;11.046;2023-02-01T18:18:25;63.67;;;26.17;;
42124;SDS011;27787;44.594;11.046;2023-02-01T18:21:09;45.30;;;23.23;;
42124;SDS011;27787;44.594;11.046;2023-02-01T18:23:54;50.28;;;22.83;;
42124;SDS011;27787;44.594;11.046;2023-02-01T18:26:38;44.70;;;20.70;;
42124;SDS011;27787;44.594;11.046;2023-02-01T18:29:23;41.83;;;17.58;;
42124;SDS011;27787;44.594;11.046;2023-02-01T18:32:08;51.60;;;18.67;;
42124;SDS011;27787;44.594;11.046;2023-02-01T18:34:58;47.35;;;21.90;;
42124;SDS011;27787;44.594;11.046;2023-02-01T18:37:42;60.85;;;27.95;;
42124;SDS011;27787;44.594;11.046;2023-02-01T18:43:43;33.97;;;16.48;;
42124;SDS011;27787;44.594;11.046;2023-02-01T18:46:29;38.30;;;15.52;;
42124;SDS011;27787;44.594;11.046;2023-02-01T18:49:12;36.70;;;18.08;;
42124;SDS011;27787;44.594;11.046;2023-02-01T18:52:01;44.03;;;19.10;;
42124;SDS011;27787;44.594;11.046;2023-02-01T18:54:49;46.00;;;19.73;;
42124;SDS011;27787;44.594;11.046;2023-02-01T18:57:33;42.72;;;21.38;;
42124;SDS011;27787;44.594;11.046;2023-02-01T19:00:21;48.08;;;22.45;;
42124;SDS011;27787;44.594;11.046;2023-02-01T19:03:05;47.28;;;20.70;;